Time;durP1;ratioP1;P1;durP2;ratioP2;P2;SDS_P1;SDS_P2;PMS_P1;PMS_P2;Temp;Humidity;BMP_temperature;BMP_pressure;BME280_temperature;BME280_humidity;BME280_pressure;Samples;Min_cycle;Max_cycle;Signal;HPM_P1;HPM_P2
2023/07/01 00:01:39;;;;;;;7.30;3.55;;;;;;;-148.88;80.98;-17125.47;5015742;28;20021;-74
2023/07/01 00:04:04;;;;;;;6.00;3.70;;;;;;;-148.88;81.21;-17125.47;5015638;28;20029;-74
2023/07/01 00:06:30;;;;;;;5.68;4.20;;;;;;;-148.88;81.84;-17125.47;5015619;28;20026;-74
2023/07/01 00:08:55;;;;;;;5.10;4.07;;;;;;;-148.88;81.52;-17125.47;5015626;28;20026;-74
2023/07/01 00:11:21;;;;;;;5.85;4.20;;;;;;;-148.88;81.39;-17125.47;4997997;28;20018;-74
2023/07/01 00:13:47;;;;;;;5.47;3.92;;;;;;;-148.88;80.90;-17125.47;5015431;28;20026;-74
2023/07/01 00:16:15;;;;;;;6.00;3.95;;;;;;;-148.88;81.41;-17125.47;4997843;28;20049;-75
2023/07/01 00:18:41;;;;;;;6.40;3.60;;;;;;;-148.88;80.85;-17125.47;4998698;28;20025;-74
2023/07/01 00:21:06;;;;;;;6.20;4.03;;;;;;;-148.88;80.91;-17125.47;5015476;28;20026;-74
2023/07/01 00:23:32;;;;;;;6.47;3.75;;;;;;;-148.88;80.23;-17125.47;4999943;28;20045;-74
2023/07/01 00:25:57;;;;;;;5.55;4.03;;;;;;;-148.88;80.28;-17125.47;4997688;28;20124;-74
2023/07/01 00:28:23;;;;;;;5.15;3.90;;;;;;;-148.88;81.24;-17125.47;5015291;28;20022;-74
2023/07/01 00:30:48;;;;;;;6.07;3.85;;;;;;;-148.88;81.21;-17125.47;5015440;28;20544;-74
2023/07/01 00:33:14;;;;;;;7.40;4.20;;;;;;;-148.88;80.28;-17125.47;4997389;28;20013;-74
2023/07/01 00:35:39;;;;;;;8.52;3.88;;;;;;;-148.88;80.60;-17125.47;4997507;28;20548;-74
2023/07/01 00:38:04;;;;;;;5.40;4.22;;;;;;;-148.88;80.92;-17125.47;5015270;28;20025;-74
2023/07/01 00:40:30;;;;;;;6.22;3.80;;;;;;;-148.88;80.30;-17125.47;5014958;28;20030;-74
2023/07/01 00:42:57;;;;;;;4.43;3.80;;;;;;;-148.88;80.05;-17125.47;5014918;28;20448;-74
2023/07/01 00:45:23;;;;;;;5.13;4.07;;;;;;;-148.88;80.08;-17125.47;4997248;28;20041;-74
2023/07/01 00:47:49;;;;;;;4.80;3.90;;;;;;;-148.88;79.07;-17125.47;4997119;28;20031;-75
2023/07/01 00:50:15;;;;;;;5.93;4.15;;;;;;;-148.88;79.26;-17125.47;5014821;28;20097;-74
2023/07/01 00:52:41;;;;;;;6.07;4.20;;;;;;;-148.88;78.41;-17125.47;5014629;28;20025;-74
2023/07/01 00:55:07;;;;;;;5.00;4.28;;;;;;;-148.88;79.83;-17125.47;4997354;28;20033;-74
2023/07/01 00:57:33;;;;;;;9.25;3.83;;;;;;;-148.88;79.06;-17125.47;5015013;28;20148;-74
2023/07/01 01:00:08;;;;;;;6.72;4.40;;;;;;;-148.88;79.00;-17125.47;5017132;28;20065;-74
2023/07/01 01:02:46;;;;;;;5.13;4.00;;;;;;;-148.88;80.19;-17125.47;4997711;28;20034;-75
2023/07/01 01:05:18;;;;;;;6.57;4.25;;;;;;;-148.88;79.31;-17125.47;4996996;28;20030;-74
2023/07/01 01:08:08;;;;;;;6.45;3.95;;;;;;;-148.88;79.19;-17125.47;4996269;28;20026;-74
2023/07/01 01:10:37;;;;;;;5.65;4.20;;;;;;;-148.88;78.52;-17125.47;4996841;28;20026;-74
2023/07/01 01:13:04;;;;;;;5.55;4.43;;;;;;;-148.88;77.98;-17125.47;5014100;28;20392;-74
2023/07/01 01:15:30;;;;;;;8.18;4.45;;;;;;;-148.88;78.15;-17125.47;5014290;28;20480;-74
2023/07/01 01:17:59;;;;;;;5.25;3.83;;;;;;;-148.88;78.98;-17125.47;5014212;28;20041;-74
2023/07/01 01:20:30;;;;;;;6.40;4.00;;;;;;;-148.88;78.74;-17125.47;5014151;28;20026;-75
2023/07/01 01:23:01;;;;;;;5.53;4.22;;;;;;;-148.88;78.90;-17125.47;4996338;28;20068;-74
2023/07/01 01:25:48;;;;;;;8.63;4.30;;;;;;;-148.88;78.45;-17125.47;5014380;28;20054;-74
2023/07/01 01:28:15;;;;;;;5.45;4.15;;;;;;;-148.88;77.98;-17125.47;5014098;28;20036;-74
2023/07/01 01:30:40;;;;;;;7.43;4.05;;;;;;;-148.88;78.12;-17125.47;4996379;28;20022;-74
2023/07/01 01:33:06;;;;;;;5.43;4.15;;;;;;;-148.88;76.98;-17125.47;5013888;28;20018;-75
2023/07/01 01:35:32;;;;;;;7.53;3.85;;;;;;;-148.88;76.02;-17125.47;4996599;28;20408;-74
2023/07/01 01:38:05;;;;;;;6.35;3.83;;;;;;;-148.88;75.95;-17125.47;4997937;28;20484;-74
2023/07/01 01:40:38;;;;;;;5.65;3.80;;;;;;;-148.88;75.84;-17125.47;4996490;28;20025;-74
2023/07/01 01:43:10;;;;;;;6.32;3.67;;;;;;;-148.88;76.06;-17125.47;5013952;28;20029;-74
2023/07/01 01:45:37;;;;;;;6.43;3.72;;;;;;;-148.88;75.72;-17125.47;4996279;28;20033;-74
2023/07/01 01:48:04;;;;;;;6.22;3.67;;;;;;;-148.88;75.06;-17125.47;4996134;28;20137;-74
2023/07/01 01:50:32;;;;;;;5.70;3.47;;;;;;;-148.88;74.93;-17125.47;4996126;28;20030;-74
2023/07/01 01:53:01;;;;;;;6.65;3.55;;;;;;;-148.88;75.32;-17125.47;4995852;28;20101;-74
2023/07/01 01:55:29;;;;;;;5.30;3.92;;;;;;;-148.88;75.49;-17125.47;5013610;28;20084;-74
2023/07/01 01:57:55;;;;;;;5.70;4.05;;;;;;;-148.88;75.31;-17125.47;5013574;28;20476;-74
2023/07/01 02:00:20;;;;;;;5.60;3.53;;;;;;;-148.88;74.65;-17125.47;4995942;28;20048;-74
2023/07/01 02:02:46;;;;;;;6.55;4.00;;;;;;;-148.88;75.70;-17125.47;4995875;28;20025;-74
2023/07/01 02:05:11;;;;;;;6.38;3.88;;;;;;;-148.88;75.90;-17125.47;4996305;28;20120;-74
2023/07/01 02:07:37;;;;;;;4.82;3.08;;;;;;;-148.88;74.98;-17125.47;5014096;28;20018;-75
2023/07/01 02:10:04;;;;;;;4.60;3.40;;;;;;;-148.88;75.12;-17125.47;4996438;28;20025;-74
2023/07/01 02:12:30;;;;;;;6.43;3.58;;;;;;;-148.88;75.55;-17125.47;5014910;28;20018;-74
2023/07/01 02:14:56;;;;;;;4.97;3.50;;;;;;;-148.88;75.45;-17125.47;4997560;28;20038;-74
2023/07/01 02:17:21;;;;;;;6.32;3.75;;;;;;;-148.88;75.57;-17125.47;4996172;28;20030;-74
2023/07/01 02:29:55;;;;;;;6.10;3.40;;;;;;;-148.88;74.67;-17125.47;5013602;28;20037;-74
2023/07/01 02:35:42;;;;;;;5.55;3.53;;;;;;;-148.88;74.17;-17125.47;5013255;28;20408;-74
2023/07/01 02:38:08;;;;;;;7.00;3.70;;;;;;;-148.88;73.64;-17125.47;5013357;28;20021;-74
2023/07/01 02:40:33;;;;;;;6.35;3.90;;;;;;;-148.88;74.68;-17125.47;5013561;28;20076;-75
2023/07/01 02:42:59;;;;;;;5.60;3.28;;;;;;;-148.88;74.31;-17125.47;4995535;28;20022;-75
2023/07/01 02:45:25;;;;;;;5.55;3.25;;;;;;;-148.88;75.11;-17125.47;5013409;28;20030;-74
2023/07/01 02:47:54;;;;;;;6.00;3.50;;;;;;;-148.88;74.29;-17125.47;5013422;28;20477;-74
2023/07/01 02:50:19;;;;;;;5.45;3.58;;;;;;;-148.88;75.13;-17125.47;5015695;28;20025;-74
2023/07/01 02:52:44;;;;;;;6.88;3.30;;;;;;;-148.88;74.72;-17125.47;5014315;28;20357;-74
2023/07/01 02:57:38;;;;;;;7.57;3.50;;;;;;;-148.88;74.99;-17125.47;5011834;28;20057;-74
2023/07/01 03:00:07;;;;;;;4.70;3.17;;;;;;;-148.88;74.69;-17125.47;5013045;28;20029;-74
2023/07/01 03:02:33;;;;;;;5.35;3.58;;;;;;;-148.88;75.00;-17125.47;4995208;28;20373;-74
2023/07/01 03:04:58;;;;;;;3.97;2.95;;;;;;;-148.88;74.34;-17125.47;5013227;28;20037;-74
2023/07/01 03:07:23;;;;;;;5.75;3.33;;;;;;;-148.88;74.50;-17125.47;4995584;28;20112;-74
2023/07/01 03:09:49;;;;;;;5.60;3.30;;;;;;;-148.88;74.27;-17125.47;4995453;28;20025;-74
2023/07/01 03:12:14;;;;;;;5.57;3.33;;;;;;;-148.88;74.20;-17125.47;4995308;28;20506;-74
2023/07/01 03:14:40;;;;;;;6.22;3.40;;;;;;;-148.88;74.26;-17125.47;4995441;28;20476;-74
2023/07/01 03:17:05;;;;;;;5.30;3.22;;;;;;;-148.88;73.96;-17125.47;4995312;28;20508;-74
2023/07/01 03:19:31;;;;;;;6.15;3.40;;;;;;;-148.88;74.04;-17125.47;5012148;28;20025;-74
2023/07/01 03:21:56;;;;;;;5.30;3.20;;;;;;;-148.88;74.40;-17125.47;5012806;28;20022;-74
2023/07/01 03:24:21;;;;;;;6.80;3.10;;;;;;;-148.88;73.79;-17125.47;5012885;28;20096;-74
2023/07/01 03:26:47;;;;;;;5.10;3.20;;;;;;;-148.88;74.16;-17125.47;5012799;28;20026;-74
2023/07/01 03:29:14;;;;;;;3.83;3.05;;;;;;;-148.88;74.21;-17125.47;4995167;28;20038;-74
2023/07/01 03:31:40;;;;;;;5.90;3.25;;;;;;;-148.88;74.14;-17125.47;4997651;28;20029;-74
2023/07/01 03:34:05;;;;;;;6.47;3.33;;;;;;;-148.88;73.81;-17125.47;5016243;28;20050;-74
2023/07/01 03:36:31;;;;;;;4.30;3.35;;;;;;;-148.88;73.17;-17125.47;5016357;28;20029;-74
2023/07/01 03:38:58;;;;;;;4.28;3.05;;;;;;;-148.88;74.40;-17125.47;5016342;28;20022;-74
2023/07/01 03:41:23;;;;;;;5.38;3.30;;;;;;;-148.88;74.04;-17125.47;5016346;28;20488;-74
2023/07/01 03:43:48;;;;;;;5.90;3.53;;;;;;;-148.88;74.41;-17125.47;5016076;28;20060;-74
2023/07/01 03:46:14;;;;;;;4.45;3.05;;;;;;;-148.88;74.57;-17125.47;5016172;28;20029;-74
2023/07/01 03:48:39;;;;;;;6.68;3.40;;;;;;;-148.88;73.97;-17125.47;5016610;28;20028;-74
2023/07/01 03:51:05;;;;;;;5.07;2.65;;;;;;;-148.88;74.98;-17125.47;5016538;28;20030;-75
2023/07/01 03:53:30;;;;;;;7.15;3.28;;;;;;;-148.88;74.43;-17125.47;5017735;28;20082;-74
2023/07/01 03:55:55;;;;;;;3.55;2.80;;;;;;;-148.88;74.17;-17125.47;5018063;28;20120;-75
2023/07/01 03:58:24;;;;;;;6.35;3.20;;;;;;;-148.88;74.76;-17125.47;5016276;28;20022;-75
2023/07/01 04:00:53;;;;;;;5.07;2.90;;;;;;;-148.88;74.10;-17125.47;4998684;28;20030;-74
2023/07/01 04:03:23;;;;;;;5.93;2.90;;;;;;;-148.88;74.17;-17125.47;4998649;28;20021;-74
2023/07/01 04:05:49;;;;;;;5.72;2.85;;;;;;;-148.88;73.61;-17125.47;5016498;28;20021;-74
2023/07/01 04:08:14;;;;;;;4.03;3.00;;;;;;;-148.88;73.75;-17125.47;5016230;28;20477;-74
2023/07/01 04:10:40;;;;;;;5.68;3.15;;;;;;;-148.88;74.37;-17125.47;5015939;28;20030;-74
2023/07/01 04:13:05;;;;;;;5.70;2.63;;;;;;;-148.88;74.38;-17125.47;4997885;28;20447;-74
2023/07/01 04:15:31;;;;;;;6.30;3.08;;;;;;;-148.88;73.32;-17125.47;5015738;28;20177;-74
2023/07/01 04:17:56;;;;;;;5.25;2.80;;;;;;;-148.88;73.69;-17125.47;5015909;28;20021;-74
2023/07/01 04:20:22;;;;;;;4.60;2.40;;;;;;;-148.88;73.83;-17125.47;5015627;28;20022;-74
2023/07/01 04:22:47;;;;;;;5.28;2.90;;;;;;;-148.88;73.57;-17125.47;5015521;28;20030;-74
2023/07/01 04:25:13;;;;;;;5.93;2.60;;;;;;;-148.88;73.27;-17125.47;5015590;28;20381;-74
2023/07/01 04:27:40;;;;;;;4.70;2.33;;;;;;;-148.88;73.96;-17125.47;5015689;28;20397;-74
2023/07/01 04:30:08;;;;;;;6.25;2.53;;;;;;;-148.88;73.37;-17125.47;5016005;28;20373;-74
2023/07/01 04:32:34;;;;;;;2.83;2.40;;;;;;;-148.88;71.47;-17125.47;4999290;28;20030;-74
2023/07/01 04:35:00;;;;;;;4.60;2.53;;;;;;;-148.88;71.88;-17125.47;4997884;28;20033;-74
2023/07/01 04:37:26;;;;;;;5.00;2.45;;;;;;;-148.88;71.27;-17125.47;4997952;28;20056;-74
2023/07/01 04:39:51;;;;;;;3.72;2.38;;;;;;;-148.88;70.38;-17125.47;5015670;28;20030;-74
2023/07/01 04:42:18;;;;;;;3.58;2.40;;;;;;;-148.88;70.46;-17125.47;5014526;28;20053;-74
2023/07/01 04:44:43;;;;;;;6.25;2.40;;;;;;;-148.88;70.79;-17125.47;5015537;28;20108;-74
2023/07/01 04:47:09;;;;;;;8.65;2.40;;;;;;;-148.88;70.60;-17125.47;5015464;28;20105;-74
2023/07/01 04:49:34;;;;;;;4.03;2.10;;;;;;;-148.88;69.13;-17125.47;4997366;28;20427;-74
2023/07/01 04:51:59;;;;;;;3.65;2.08;;;;;;;-148.88;69.97;-17125.47;5015708;28;20088;-75
2023/07/01 04:54:25;;;;;;;6.30;2.35;;;;;;;-148.88;69.73;-17125.47;4997374;28;20506;-74
2023/07/01 04:56:50;;;;;;;3.88;2.20;;;;;;;-148.88;69.08;-17125.47;5014819;28;20084;-74
2023/07/01 04:59:15;;;;;;;5.50;2.17;;;;;;;-148.88;68.59;-17125.47;5014621;28;20022;-74
2023/07/01 05:01:41;;;;;;;6.88;2.15;;;;;;;-148.88;67.37;-17125.47;5014757;28;20075;-74
2023/07/01 05:04:06;;;;;;;4.28;1.92;;;;;;;-148.88;68.82;-17125.47;5015038;28;20024;-74
2023/07/01 05:06:32;;;;;;;5.07;1.95;;;;;;;-148.88;68.40;-17125.47;5015930;28;20053;-75
2023/07/01 05:08:58;;;;;;;3.15;1.83;;;;;;;-148.88;67.72;-17125.47;5018311;28;20025;-74
2023/07/01 05:11:23;;;;;;;4.90;2.10;;;;;;;-148.88;67.99;-17125.47;5015213;28;20105;-74
2023/07/01 05:13:49;;;;;;;5.65;2.13;;;;;;;-148.88;67.06;-17125.47;4996699;28;20096;-75
2023/07/01 05:16:14;;;;;;;5.43;2.42;;;;;;;-148.88;67.34;-17125.47;4996902;28;20030;-75
2023/07/01 05:18:39;;;;;;;2.63;1.70;;;;;;;-148.88;67.04;-17125.47;5014606;28;20024;-74
2023/07/01 05:21:05;;;;;;;5.07;2.22;;;;;;;-148.88;65.98;-17125.47;5014534;28;20034;-74
2023/07/01 05:23:30;;;;;;;6.22;2.10;;;;;;;-148.88;67.18;-17125.47;5014145;28;20022;-74
2023/07/01 05:25:55;;;;;;;4.30;1.88;;;;;;;-148.88;67.79;-17125.47;5014805;28;20022;-74
2023/07/01 05:28:21;;;;;;;5.70;2.17;;;;;;;-148.88;67.33;-17125.47;4996488;28;20030;-75
2023/07/01 05:30:46;;;;;;;3.70;1.90;;;;;;;-148.88;67.45;-17125.47;5014206;28;20032;-74
2023/07/01 05:33:12;;;;;;;3.70;2.00;;;;;;;-148.88;66.44;-17125.47;4996272;28;20484;-75
2023/07/01 05:35:37;;;;;;;5.30;2.28;;;;;;;-148.88;66.91;-17125.47;5014612;28;20436;-74
2023/07/01 05:38:07;;;;;;;9.50;2.38;;;;;;;-148.88;67.07;-17125.47;5014657;28;20500;-74
2023/07/01 05:40:33;;;;;;;4.93;2.20;;;;;;;-148.88;67.80;-17125.47;5014844;28;20065;-74
2023/07/01 05:42:58;;;;;;;5.05;2.20;;;;;;;-148.88;67.92;-17125.47;4997057;28;20100;-74
2023/07/01 05:45:23;;;;;;;3.70;2.03;;;;;;;-148.88;68.13;-17125.47;5015356;28;20113;-74
2023/07/01 05:47:49;;;;;;;4.72;2.03;;;;;;;-148.88;69.03;-17125.47;5014680;28;20072;-74
2023/07/01 05:50:14;;;;;;;5.00;2.47;;;;;;;-148.88;68.54;-17125.47;5014491;28;20021;-76
2023/07/01 05:52:39;;;;;;;2.80;2.00;;;;;;;-148.88;67.20;-17125.47;5015025;28;20424;-76
2023/07/01 05:55:05;;;;;;;3.60;2.42;;;;;;;-148.88;68.06;-17125.47;5014501;28;20029;-76
2023/07/01 05:57:31;;;;;;;4.97;2.20;;;;;;;-148.88;68.71;-17125.47;5014632;28;20064;-76
2023/07/01 05:59:57;;;;;;;7.60;2.50;;;;;;;-148.88;69.18;-17125.47;5015804;28;20451;-75
2023/07/01 06:02:22;;;;;;;4.95;2.35;;;;;;;-148.88;69.24;-17125.47;4997063;28;20030;-75
2023/07/01 06:04:48;;;;;;;6.22;2.20;;;;;;;-148.88;68.15;-17125.47;4996937;28;20476;-76
2023/07/01 06:07:13;;;;;;;5.63;2.20;;;;;;;-148.88;69.17;-17125.47;5014507;28;20053;-76
2023/07/01 06:09:38;;;;;;;5.47;2.42;;;;;;;-148.88;69.40;-17125.47;5014435;28;20049;-76
2023/07/01 06:12:04;;;;;;;5.47;2.33;;;;;;;-148.88;70.82;-17125.47;5015811;28;20103;-77
2023/07/01 06:14:29;;;;;;;4.47;2.28;;;;;;;-148.88;69.22;-17125.47;5014074;28;20356;-77
2023/07/01 06:16:55;;;;;;;4.45;2.20;;;;;;;-148.88;68.36;-17125.47;5014764;28;20048;-77
2023/07/01 06:19:20;;;;;;;6.07;2.33;;;;;;;-148.88;68.45;-17125.47;5014411;28;20025;-78
2023/07/01 06:21:46;;;;;;;4.70;2.38;;;;;;;-148.88;69.32;-17125.47;4998811;28;20022;-76
2023/07/01 06:24:11;;;;;;;5.10;2.42;;;;;;;-148.88;70.01;-17125.47;4997028;28;20018;-77
2023/07/01 06:26:37;;;;;;;5.60;2.15;;;;;;;-148.88;69.28;-17125.47;5014775;28;20071;-77
2023/07/01 06:29:02;;;;;;;5.47;2.15;;;;;;;-148.88;68.86;-17125.47;5013978;28;20037;-77
2023/07/01 06:31:28;;;;;;;6.20;2.60;;;;;;;-148.88;68.31;-17125.47;5014538;28;20026;-77
2023/07/01 06:33:53;;;;;;;4.35;2.47;;;;;;;-148.88;68.19;-17125.47;5014293;28;20177;-76
2023/07/01 06:36:19;;;;;;;5.20;2.20;;;;;;;-148.88;68.25;-17125.47;4996762;28;20061;-76
2023/07/01 06:38:46;;;;;;;5.18;2.00;;;;;;;-148.88;67.75;-17125.47;4996599;28;20060;-76
2023/07/01 06:41:12;;;;;;;6.53;2.70;;;;;;;-148.88;68.66;-17125.47;5014032;28;20030;-76
2023/07/01 06:43:41;;;;;;;8.30;2.38;;;;;;;-148.88;68.36;-17125.47;4996492;28;20076;-77
2023/07/01 06:46:06;;;;;;;4.05;2.30;;;;;;;-148.88;68.97;-17125.47;4996126;28;20030;-76
2023/07/01 06:48:32;;;;;;;5.88;2.53;;;;;;;-148.88;69.04;-17125.47;5014233;28;20037;-76
2023/07/01 06:50:57;;;;;;;4.82;2.30;;;;;;;-148.88;68.83;-17125.47;5014243;28;20510;-76
2023/07/01 06:53:23;;;;;;;4.25;2.40;;;;;;;-148.88;68.93;-17125.47;5013967;28;20100;-76
2023/07/01 06:55:48;;;;;;;4.82;2.50;;;;;;;-148.88;68.02;-17125.47;5014447;28;20037;-76
2023/07/01 06:58:14;;;;;;;3.60;2.10;;;;;;;-148.88;68.93;-17125.47;4997261;28;20025;-76
2023/07/01 07:00:39;;;;;;;5.38;2.58;;;;;;;-148.88;68.44;-17125.47;4996862;28;20021;-77
2023/07/01 07:03:05;;;;;;;5.53;2.28;;;;;;;-148.88;68.48;-17125.47;5014133;28;20022;-76
2023/07/01 07:05:32;;;;;;;4.38;2.30;;;;;;;-148.88;68.20;-17125.47;5014771;28;20035;-76
2023/07/01 07:07:58;;;;;;;5.50;2.30;;;;;;;-148.88;67.72;-17125.47;5018092;28;20021;-76
2023/07/01 07:10:23;;;;;;;6.10;2.15;;;;;;;-148.88;68.26;-17125.47;5017633;28;20156;-76
2023/07/01 07:12:48;;;;;;;3.95;2.05;;;;;;;-148.88;67.90;-17125.47;5017861;28;20056;-76
2023/07/01 07:15:14;;;;;;;5.90;2.22;;;;;;;-148.88;67.98;-17125.47;5017629;28;20030;-76
2023/07/01 07:17:39;;;;;;;4.22;2.25;;;;;;;-148.88;68.38;-17125.47;5017635;28;20365;-77
2023/07/01 07:20:05;;;;;;;4.25;2.35;;;;;;;-148.88;67.81;-17125.47;5017328;28;20040;-74
2023/07/01 07:22:33;;;;;;;4.75;2.28;;;;;;;-148.88;68.84;-17125.47;5016947;28;20057;-75
2023/07/01 07:24:59;;;;;;;4.65;2.30;;;;;;;-148.88;68.88;-17125.47;4999420;28;20032;-75
2023/07/01 07:27:25;;;;;;;5.47;2.58;;;;;;;-148.88;69.79;-17125.47;5017032;28;20026;-75
2023/07/01 07:29:50;;;;;;;5.43;2.17;;;;;;;-148.88;69.99;-17125.47;4999936;28;20498;-75
2023/07/01 07:32:16;;;;;;;7.05;2.20;;;;;;;-148.88;68.95;-17125.47;5017001;28;20053;-75
2023/07/01 07:34:41;;;;;;;5.72;2.33;;;;;;;-148.88;68.88;-17125.47;5017702;28;20021;-75
2023/07/01 07:37:07;;;;;;;4.47;2.35;;;;;;;-148.88;68.58;-17125.47;5018369;28;20088;-75
2023/07/01 07:39:32;;;;;;;5.68;2.50;;;;;;;-148.88;69.23;-17125.47;5017818;28;20064;-74
2023/07/01 07:41:58;;;;;;;6.00;2.33;;;;;;;-148.88;68.29;-17125.47;5018102;28;20060;-74
2023/07/01 07:44:23;;;;;;;5.45;2.45;;;;;;;-148.88;67.74;-17125.47;5017756;28;20385;-74
2023/07/01 07:46:48;;;;;;;5.03;2.63;;;;;;;-148.88;68.71;-17125.47;5017417;28;20404;-74
2023/07/01 07:49:14;;;;;;;5.43;2.40;;;;;;;-148.88;67.69;-17125.47;5017870;28;20068;-74
2023/07/01 07:51:39;;;;;;;5.55;2.25;;;;;;;-148.88;69.62;-17125.47;5017890;28;20053;-75
2023/07/01 07:54:04;;;;;;;5.45;2.40;;;;;;;-148.88;69.38;-17125.47;5017067;28;20387;-75
2023/07/01 07:56:30;;;;;;;7.05;2.63;;;;;;;-148.88;69.76;-17125.47;5016919;28;20135;-74
2023/07/01 07:58:55;;;;;;;6.68;2.53;;;;;;;-148.88;69.06;-17125.47;5017391;28;20447;-74
2023/07/01 08:01:21;;;;;;;3.85;2.20;;;;;;;-148.88;69.35;-17125.47;5016512;28;20127;-74
2023/07/01 08:03:46;;;;;;;5.57;2.50;;;;;;;-148.88;70.00;-17125.47;5016128;28;20029;-75
2023/07/01 08:06:11;;;;;;;6.88;2.58;;;;;;;-148.88;70.33;-17125.47;4999038;28;20180;-75
2023/07/01 08:08:37;;;;;;;7.65;2.70;;;;;;;-148.88;69.69;-17125.47;5017034;28;20022;-75
2023/07/01 08:11:02;;;;;;;4.60;2.45;;;;;;;-148.88;71.18;-17125.47;5015781;28;20026;-75
2023/07/01 08:13:27;;;;;;;5.68;2.60;;;;;;;-148.88;71.71;-17125.47;5015686;28;20021;-74
2023/07/01 08:15:53;;;;;;;4.50;2.63;;;;;;;-148.88;72.54;-17125.47;5015681;28;20029;-75
2023/07/01 08:18:19;;;;;;;6.22;2.60;;;;;;;-148.88;73.00;-17125.47;5014252;28;20022;-74
2023/07/01 08:20:46;;;;;;;5.93;2.80;;;;;;;-148.88;73.11;-17125.47;4998230;28;20021;-75
2023/07/01 08:23:15;;;;;;;6.97;2.80;;;;;;;-148.88;73.32;-17125.47;4997820;28;20397;-75
2023/07/01 08:25:41;;;;;;;6.70;3.00;;;;;;;-148.88;73.37;-17125.47;4997916;28;20092;-75
2023/07/01 08:28:07;;;;;;;6.25;2.47;;;;;;;-148.88;75.06;-17125.47;4997830;28;20033;-75
2023/07/01 08:30:32;;;;;;;7.72;2.70;;;;;;;-148.88;74.75;-17125.47;5015494;28;20026;-75
2023/07/01 08:32:57;;;;;;;5.30;2.50;;;;;;;-148.88;75.03;-17125.47;5015203;28;20387;-76
2023/07/01 08:35:23;;;;;;;5.20;2.63;;;;;;;-148.88;75.19;-17125.47;5015284;28;20029;-76
2023/07/01 08:37:48;;;;;;;6.85;2.80;;;;;;;-148.88;76.02;-17125.47;5015227;28;20543;-76
2023/07/01 08:40:14;;;;;;;6.28;2.50;;;;;;;-148.88;77.01;-17125.47;5015217;28;20567;-76
2023/07/01 08:42:44;;;;;;;7.88;3.17;;;;;;;-148.88;76.46;-17125.47;4997593;28;20026;-76
2023/07/01 08:45:10;;;;;;;5.63;2.88;;;;;;;-148.88;77.61;-17125.47;4997512;28;20030;-76
2023/07/01 08:47:36;;;;;;;8.85;3.03;;;;;;;-148.88;77.51;-17125.47;5015102;28;20117;-76
2023/07/01 08:50:06;;;;;;;4.85;2.75;;;;;;;-148.88;78.62;-17125.47;5015670;28;20108;-75
2023/07/01 08:52:46;;;;;;;4.25;2.40;;;;;;;-148.88;78.35;-17125.47;5015287;28;20029;-75
2023/07/01 08:55:12;;;;;;;5.63;2.63;;;;;;;-148.88;78.83;-17125.47;4997710;28;20391;-76
2023/07/01 08:57:41;;;;;;;6.55;2.80;;;;;;;-148.88;79.34;-17125.47;5014864;28;20539;-76
2023/07/01 09:00:12;;;;;;;5.47;2.42;;;;;;;-148.88;80.66;-17125.47;5014981;28;20026;-75
2023/07/01 09:02:38;;;;;;;6.93;2.83;;;;;;;-148.88;80.62;-17125.47;5014705;28;20026;-76
2023/07/01 09:05:04;;;;;;;4.90;2.53;;;;;;;-148.88;81.89;-17125.47;5014777;28;20034;-75
2023/07/01 09:07:29;;;;;;;6.43;2.75;;;;;;;-148.88;83.45;-17125.47;5014672;28;20029;-76
2023/07/01 09:10:04;;;;;;;6.43;2.70;;;;;;;-148.88;84.23;-17125.47;5014637;28;20072;-76
2023/07/01 09:12:30;;;;;;;5.30;2.65;;;;;;;-148.88;85.66;-17125.47;5014495;28;20022;-76
2023/07/01 09:15:04;;;;;;;6.78;3.10;;;;;;;-148.88;86.20;-17125.47;5014455;28;20021;-76
2023/07/01 09:17:35;;;;;;;7.68;3.38;;;;;;;-148.88;87.63;-17125.47;5014537;28;20030;-76
2023/07/01 09:20:11;;;;;;;5.82;2.90;;;;;;;-148.88;86.78;-17125.47;4996901;28;20049;-76
2023/07/01 09:22:38;;;;;;;7.50;3.25;;;;;;;-148.88;88.98;-17125.47;5014694;28;20026;-76
2023/07/01 09:25:04;;;;;;;7.70;3.40;;;;;;;-148.88;89.14;-17125.47;4997085;28;20040;-76
2023/07/01 09:27:46;;;;;;;6.03;3.08;;;;;;;-148.88;88.40;-17125.47;5014617;28;20101;-75
2023/07/01 09:30:32;;;;;;;6.47;2.90;;;;;;;-148.88;87.64;-17125.47;4996237;28;20022;-76
2023/07/01 09:33:11;;;;;;;4.95;3.05;;;;;;;-148.88;88.03;-17125.47;5013878;28;20041;-77
2023/07/01 09:35:42;;;;;;;5.03;3.20;;;;;;;-148.88;88.61;-17125.47;4996784;28;20064;-76
2023/07/01 09:38:07;;;;;;;5.82;3.15;;;;;;;-148.88;88.65;-17125.47;5014193;28;20026;-76
2023/07/01 09:40:33;;;;;;;7.45;3.35;;;;;;;-148.88;89.53;-17125.47;4996519;28;20085;-76
2023/07/01 09:42:58;;;;;;;6.32;3.25;;;;;;;-148.88;89.87;-17125.47;5014043;28;20021;-75
2023/07/01 09:45:24;;;;;;;6.40;3.45;;;;;;;-148.88;90.00;-17125.47;4996424;28;20057;-75
2023/07/01 09:47:53;;;;;;;5.22;3.20;;;;;;;-148.88;90.93;-17125.47;4996687;28;20499;-76
2023/07/01 09:50:29;;;;;;;7.75;3.67;;;;;;;-148.88;89.55;-17125.47;4996331;28;20033;-75
2023/07/01 09:52:56;;;;;;;5.20;3.20;;;;;;;-148.88;88.94;-17125.47;5013830;28;20419;-76
2023/07/01 09:55:22;;;;;;;4.15;3.15;;;;;;;-148.88;89.35;-17125.47;5013739;28;20061;-75
2023/07/01 09:57:48;;;;;;;5.68;3.55;;;;;;;-148.88;90.47;-17125.47;4996350;28;20029;-76
2023/07/01 10:00:17;;;;;;;5.60;3.17;;;;;;;-148.88;91.81;-17125.47;5013913;28;20026;-75
2023/07/01 10:02:47;;;;;;;4.80;3.25;;;;;;;-148.88;92.70;-17125.47;5014988;28;20072;-75
2023/07/01 10:05:14;;;;;;;7.72;3.58;;;;;;;-148.88;94.46;-17125.47;4997097;28;20028;-76
2023/07/01 10:07:40;;;;;;;6.10;3.65;;;;;;;-148.88;95.35;-17125.47;5013916;28;20030;-77
2023/07/01 10:10:12;;;;;;;7.30;4.10;;;;;;;-148.88;95.48;-17125.47;5014260;28;20018;-78
2023/07/01 10:12:39;;;;;;;6.43;4.13;;;;;;;-148.88;96.05;-17125.47;5014133;28;20022;-76
2023/07/01 10:15:06;;;;;;;6.38;3.47;;;;;;;-148.88;96.25;-17125.47;4996293;28;20029;-76
2023/07/01 10:17:52;;;;;;;5.95;4.20;;;;;;;-148.88;96.45;-17125.47;4996901;28;20029;-79
2023/07/01 10:20:32;;;;;;;7.45;4.63;;;;;;;-148.88;98.02;-17125.47;4996326;28;20026;-76
2023/07/01 10:23:01;;;;;;;7.45;4.47;;;;;;;-148.88;96.08;-17125.47;5014725;28;20029;-76
2023/07/01 10:25:41;;;;;;;5.80;4.30;;;;;;;-148.88;96.68;-17125.47;5013533;28;20029;-75
2023/07/01 10:28:07;;;;;;;9.38;4.72;;;;;;;-148.88;96.79;-17125.47;5013687;28;20049;-75
2023/07/01 10:30:42;;;;;;;7.28;4.35;;;;;;;-148.88;97.37;-17125.47;5013285;28;20484;-75
2023/07/01 10:33:35;;;;;;;8.02;4.68;;;;;;;-148.88;98.12;-17125.47;5013154;28;20060;-75
2023/07/01 10:36:02;;;;;;;6.90;4.13;;;;;;;-148.88;98.15;-17125.47;4995670;28;20416;-75
2023/07/01 10:38:30;;;;;;;6.85;4.53;;;;;;;-148.88;96.68;-17125.47;5013260;28;20037;-75
2023/07/01 10:40:55;;;;;;;8.15;4.35;;;;;;;-148.88;97.75;-17125.47;5014426;28;20021;-77
2023/07/01 10:43:25;;;;;;;7.43;4.97;;;;;;;-148.88;100.00;-17125.47;4995751;28;20017;-76
2023/07/01 10:46:10;;;;;;;8.57;4.40;;;;;;;-148.88;100.00;-17125.47;4995558;28;20052;-76
2023/07/01 10:48:36;;;;;;;5.15;4.50;;;;;;;-148.88;100.00;-17125.47;5013217;28;20018;-77
2023/07/01 10:51:04;;;;;;;6.63;4.47;;;;;;;-148.88;100.00;-17125.47;5013510;28;20030;-75
2023/07/01 10:53:30;;;;;;;5.05;4.53;;;;;;;-148.88;100.00;-17125.47;4995365;28;20068;-75
2023/07/01 10:56:10;;;;;;;6.95;4.80;;;;;;;-148.88;100.00;-17125.47;4995377;28;20515;-76
2023/07/01 10:58:36;;;;;;;7.07;4.55;;;;;;;-148.88;100.00;-17125.47;5013342;28;20080;-76
2023/07/01 11:01:03;;;;;;;10.35;4.50;;;;;;;-148.88;100.00;-17125.47;5013309;28;20025;-76
2023/07/01 11:03:34;;;;;;;8.85;4.70;;;;;;;-148.88;99.36;-17125.47;5012842;28;20026;-75
2023/07/01 11:06:07;;;;;;;6.78;4.10;;;;;;;-148.88;98.31;-17125.47;5013135;28;20030;-75
2023/07/01 11:08:51;;;;;;;5.27;4.13;;;;;;;-148.88;97.97;-17125.47;4995382;28;20129;-76
2023/07/01 11:11:28;;;;;;;6.65;4.30;;;;;;;-148.88;97.54;-17125.47;5013261;28;20469;-75
2023/07/01 11:13:54;;;;;;;5.45;3.72;;;;;;;-148.88;98.36;-17125.47;5012798;28;20029;-75
2023/07/01 11:16:20;;;;;;;5.43;3.97;;;;;;;-148.88;98.43;-17125.47;5013076;28;20465;-75
2023/07/01 11:18:49;;;;;;;5.00;3.90;;;;;;;-148.88;99.88;-17125.47;4995246;28;20041;-75
2023/07/01 11:21:26;;;;;;;6.05;3.95;;;;;;;-148.88;100.00;-17125.47;5012973;28;20030;-75
2023/07/01 11:23:53;;;;;;;6.30;3.92;;;;;;;-148.88;100.00;-17125.47;5012713;28;20022;-75
2023/07/01 11:26:20;;;;;;;7.68;4.40;;;;;;;-148.88;100.00;-17125.47;5012803;28;20068;-75